createdAt,value
2018-07-06T00:00:24.537Z,18.30
2018-07-06T00:03:04.243Z,18.30
2018-07-06T00:05:43.943Z,18.30
2018-07-06T00:08:23.589Z,18.30
2018-07-06T00:11:03.452Z,18.20
2018-07-06T00:13:43.001Z,18.20
2018-07-06T00:16:22.547Z,18.20
2018-07-06T00:19:02.255Z,18.20
2018-07-06T00:21:41.892Z,18.20
2018-07-06T00:24:21.544Z,18.10
2018-07-06T00:27:01.216Z,18.20
2018-07-06T00:29:40.840Z,18.10
2018-07-06T00:32:20.609Z,18.20
2018-07-06T00:35:00.336Z,18.10
2018-07-06T00:37:40.055Z,18.10
2018-07-06T00:40:19.934Z,18.10
2018-07-06T00:42:59.560Z,18.10
2018-07-06T00:45:39.245Z,18.10
2018-07-06T00:48:18.904Z,18.10
2018-07-06T00:51:01.997Z,18.10
2018-07-06T00:53:42.038Z,18.10
2018-07-06T00:56:22.192Z,18.10
2018-07-06T00:59:01.956Z,18.10
2018-07-06T01:01:41.954Z,18.00
2018-07-06T01:04:21.755Z,18.00
2018-07-06T01:07:01.536Z,18.10
2018-07-06T01:09:41.408Z,18.00
2018-07-06T01:12:26.521Z,18.00
2018-07-06T01:15:11.667Z,18.00
2018-07-06T01:17:51.292Z,18.00
2018-07-06T01:20:31.122Z,18.00
2018-07-06T01:23:10.765Z,18.00
2018-07-06T01:25:50.654Z,18.00
2018-07-06T01:28:30.389Z,18.00
2018-07-06T01:31:10.280Z,18.00
2018-07-06T01:33:49.850Z,17.90
2018-07-06T01:36:29.503Z,17.90
2018-07-06T01:39:09.240Z,17.90
2018-07-06T01:41:48.803Z,17.90
2018-07-06T01:44:28.540Z,17.80
2018-07-06T01:47:07.956Z,17.90
2018-07-06T01:49:47.680Z,17.80
2018-07-06T01:52:27.271Z,17.80
2018-07-06T01:55:06.980Z,17.80
2018-07-06T01:57:46.629Z,17.80
2018-07-06T02:00:26.285Z,17.70
2018-07-06T02:03:06.050Z,17.70
2018-07-06T02:05:45.757Z,17.60
2018-07-06T02:08:25.459Z,17.60
2018-07-06T02:11:05.155Z,17.60
2018-07-06T02:13:44.755Z,17.60
2018-07-06T02:16:25.266Z,17.60
2018-07-06T02:19:05.117Z,17.60
2018-07-06T02:21:44.901Z,17.60
2018-07-06T02:24:24.609Z,17.60
2018-07-06T02:29:38.143Z,17.50
2018-07-06T02:32:17.885Z,17.50
2018-07-06T02:34:57.687Z,17.50
2018-07-06T02:37:37.408Z,17.50
2018-07-06T02:40:17.112Z,17.50
2018-07-06T02:42:56.844Z,17.50
2018-07-06T02:45:36.624Z,17.50
2018-07-06T02:48:16.414Z,17.50
2018-07-06T02:50:56.022Z,17.50
2018-07-06T02:53:35.849Z,17.50
2018-07-06T02:56:15.596Z,17.50
2018-07-06T02:58:55.394Z,17.40
2018-07-06T03:01:35.046Z,17.40
2018-07-06T03:04:14.665Z,17.40
2018-07-06T03:06:54.647Z,17.50
2018-07-06T03:09:34.389Z,17.50
2018-07-06T03:12:14.144Z,17.50
2018-07-06T03:14:53.762Z,17.50
2018-07-06T03:17:33.499Z,17.50
2018-07-06T03:20:12.979Z,17.60
2018-07-06T03:22:52.673Z,17.50
2018-07-06T03:25:32.398Z,17.60
2018-07-06T03:28:12.340Z,17.60
2018-07-06T03:30:52.047Z,17.60
2018-07-06T03:33:31.672Z,17.60
2018-07-06T03:36:11.377Z,17.60
2018-07-06T03:38:50.946Z,17.50
2018-07-06T03:41:30.637Z,17.50
2018-07-06T03:44:10.158Z,17.50
2018-07-06T03:46:49.769Z,17.50
2018-07-06T03:49:29.564Z,17.50
2018-07-06T03:52:09.305Z,17.60
2018-07-06T03:54:48.938Z,17.60
2018-07-06T03:57:28.663Z,17.60
2018-07-06T04:00:08.265Z,17.60
2018-07-06T04:02:47.970Z,17.50
2018-07-06T04:05:27.640Z,17.60
2018-07-06T04:08:07.490Z,17.60
2018-07-06T04:13:20.810Z,17.60
2018-07-06T04:16:00.549Z,17.70
2018-07-06T04:18:40.313Z,17.70
2018-07-06T04:21:20.247Z,17.70
2018-07-06T04:23:59.876Z,17.70
2018-07-06T04:26:39.670Z,17.70
2018-07-06T04:29:19.757Z,17.80
2018-07-06T04:31:59.483Z,17.80
2018-07-06T04:34:39.327Z,17.80
2018-07-06T04:37:18.965Z,17.90
2018-07-06T04:39:58.903Z,17.80
2018-07-06T04:42:38.603Z,17.80
2018-07-06T04:45:18.197Z,17.80
2018-07-06T04:47:58.014Z,17.90
2018-07-06T04:50:38.706Z,17.90
2018-07-06T04:53:18.321Z,18.00
2018-07-06T04:55:57.971Z,18.00
2018-07-06T04:58:37.651Z,18.10
2018-07-06T05:01:17.412Z,18.10
2018-07-06T05:03:57.197Z,18.10
2018-07-06T05:06:36.876Z,18.00
2018-07-06T05:09:16.547Z,18.10
2018-07-06T05:11:56.337Z,18.00
2018-07-06T05:14:35.927Z,17.90
2018-07-06T05:17:15.583Z,18.00
2018-07-06T05:19:55.274Z,18.10
2018-07-06T05:22:34.921Z,18.00
2018-07-06T05:25:14.836Z,18.00
2018-07-06T05:27:54.563Z,18.10
2018-07-06T05:30:34.405Z,18.30
2018-07-06T05:33:14.198Z,18.30
2018-07-06T05:35:54.146Z,18.30
2018-07-06T05:38:33.913Z,18.30
2018-07-06T05:43:47.370Z,18.30
2018-07-06T05:46:27.145Z,18.10
2018-07-06T05:49:06.654Z,18.20
2018-07-06T05:51:46.278Z,18.20
2018-07-06T05:54:25.878Z,18.20
2018-07-06T05:57:05.576Z,18.30
2018-07-06T05:59:45.680Z,18.30
2018-07-06T06:02:25.362Z,18.40
2018-07-06T06:05:05.040Z,18.40
2018-07-06T06:07:32.355Z,18.50
2018-07-06T06:10:00.846Z,18.60
2018-07-06T06:12:29.254Z,18.70
2018-07-06T06:14:57.880Z,18.80
2018-07-06T06:17:26.316Z,18.90
2018-07-06T06:19:54.882Z,19.00
2018-07-06T06:22:23.593Z,19.10
2018-07-06T06:24:52.050Z,19.30
2018-07-06T06:27:20.493Z,19.20
2018-07-06T06:29:50.065Z,19.20
2018-07-06T06:32:18.528Z,19.40
2018-07-06T06:34:47.078Z,19.50
2018-07-06T06:37:15.575Z,19.70
2018-07-06T06:39:44.082Z,19.70
2018-07-06T06:42:12.532Z,19.80
2018-07-06T06:44:41.061Z,19.70
2018-07-06T06:47:09.466Z,19.40
2018-07-06T06:49:38.016Z,19.60
2018-07-06T06:52:06.614Z,19.90
2018-07-06T06:54:35.170Z,20.20
2018-07-06T06:57:03.686Z,20.10
2018-07-06T06:59:32.218Z,20.10
2018-07-06T07:02:00.747Z,20.00
2018-07-06T07:04:29.369Z,20.30
2018-07-06T07:06:57.966Z,20.50
2018-07-06T07:09:26.473Z,20.60
2018-07-06T07:11:55.000Z,20.50
2018-07-06T07:14:23.466Z,20.50
2018-07-06T07:16:52.008Z,20.60
2018-07-06T07:19:20.629Z,20.60
2018-07-06T07:21:49.098Z,20.90
2018-07-06T07:24:17.592Z,21.30
2018-07-06T07:26:46.048Z,21.10
2018-07-06T07:29:21.080Z,21.50
2018-07-06T07:31:49.532Z,21.90
2018-07-06T07:34:18.024Z,21.90
2018-07-06T07:36:46.470Z,22.00
2018-07-06T07:39:15.438Z,22.10
2018-07-06T07:41:44.145Z,22.10
2018-07-06T07:44:12.697Z,22.50
2018-07-06T07:46:41.273Z,22.60
2018-07-06T07:49:09.761Z,22.90
2018-07-06T07:52:09.267Z,22.10
2018-07-06T07:54:54.445Z,22.00
2018-07-06T07:57:23.273Z,22.30
2018-07-06T07:59:52.333Z,22.60
2018-07-06T08:02:21.035Z,23.20
2018-07-06T08:04:50.061Z,23.70
2018-07-06T08:07:19.412Z,23.00
2018-07-06T08:09:48.090Z,23.70
2018-07-06T08:12:17.193Z,24.00
2018-07-06T08:14:45.735Z,24.30
2018-07-06T08:17:14.335Z,24.70
2018-07-06T08:19:42.832Z,24.50
2018-07-06T08:22:11.795Z,25.10
2018-07-06T08:24:40.238Z,25.00
2018-07-06T08:27:08.699Z,25.10
2018-07-06T08:29:37.219Z,25.50
2018-07-06T08:32:05.798Z,25.40
2018-07-06T08:34:45.621Z,25.50
2018-07-06T08:37:27.830Z,24.80
2018-07-06T08:39:57.154Z,24.80
2018-07-06T08:42:27.079Z,23.50
2018-07-06T08:44:56.564Z,23.80
2018-07-06T08:47:25.166Z,23.50
2018-07-06T08:49:54.434Z,23.10
2018-07-06T08:52:22.959Z,23.40
2018-07-06T08:54:52.335Z,23.20
2018-07-06T08:57:22.302Z,22.70
2018-07-06T08:59:51.545Z,22.40
2018-07-06T09:02:20.070Z,22.00
2018-07-06T09:04:49.315Z,21.80
2018-07-06T09:07:17.884Z,21.90
2018-07-06T09:09:46.652Z,21.70
2018-07-06T09:12:15.107Z,21.50
2018-07-06T09:14:43.601Z,21.60
2018-07-06T09:17:13.569Z,21.40
2018-07-06T09:19:42.513Z,21.50
2018-07-06T09:22:11.417Z,21.50
2018-07-06T09:24:39.870Z,21.50
2018-07-06T09:27:08.347Z,21.60
2018-07-06T09:29:36.858Z,21.50
2018-07-06T09:32:05.577Z,21.50
2018-07-06T09:34:34.236Z,21.30
2018-07-06T09:37:02.862Z,21.20
2018-07-06T09:39:31.376Z,21.10
2018-07-06T09:41:59.914Z,21.00
2018-07-06T09:44:28.584Z,20.90
2018-07-06T09:46:57.143Z,21.00
2018-07-06T09:49:25.948Z,20.90
2018-07-06T09:51:54.438Z,20.80
2018-07-06T09:54:22.965Z,20.60
2018-07-06T09:56:51.590Z,20.10
2018-07-06T09:59:20.143Z,19.50
2018-07-06T10:01:48.572Z,19.20
2018-07-06T10:04:17.177Z,18.60
2018-07-06T10:06:45.757Z,18.10
2018-07-06T10:09:14.960Z,17.80
2018-07-06T10:11:43.527Z,17.70
2018-07-06T10:14:12.059Z,17.70
2018-07-06T10:16:40.584Z,17.80
2018-07-06T10:19:09.350Z,17.90
2018-07-06T10:21:37.855Z,18.10
2018-07-06T10:24:06.426Z,18.20
2018-07-06T10:26:35.021Z,18.30
2018-07-06T10:29:17.214Z,18.50
2018-07-06T10:31:56.369Z,18.60
2018-07-06T10:34:24.915Z,18.70
2018-07-06T10:36:53.369Z,18.80
2018-07-06T10:39:21.924Z,18.80
2018-07-06T10:41:50.387Z,18.80
2018-07-06T10:44:18.844Z,18.70
2018-07-06T10:46:47.416Z,18.80
2018-07-06T10:49:15.943Z,18.90
2018-07-06T10:51:44.567Z,19.00
2018-07-06T10:54:13.114Z,19.10
2018-07-06T10:56:41.703Z,19.10
2018-07-06T10:59:10.236Z,19.10
2018-07-06T11:04:07.139Z,19.30
2018-07-06T11:06:35.768Z,19.30
2018-07-06T11:09:04.805Z,19.30
2018-07-06T11:11:33.403Z,19.40
2018-07-06T11:14:01.883Z,19.40
2018-07-06T11:16:30.636Z,19.60
2018-07-06T11:18:59.097Z,19.60
2018-07-06T11:21:27.545Z,19.70
2018-07-06T11:23:56.051Z,19.80
2018-07-06T11:26:24.769Z,19.70
2018-07-06T11:28:53.556Z,19.90
2018-07-06T11:33:50.519Z,20.00
2018-07-06T11:36:19.633Z,20.10
2018-07-06T11:38:48.248Z,20.20
2018-07-06T11:41:17.044Z,20.30
2018-07-06T11:43:45.877Z,20.30
2018-07-06T11:46:14.644Z,20.50
2018-07-06T11:48:43.276Z,20.80
2018-07-06T11:51:11.976Z,21.20
2018-07-06T11:53:40.548Z,21.40
2018-07-06T11:56:09.224Z,21.80
2018-07-06T11:58:37.896Z,21.90
2018-07-06T12:01:06.575Z,22.10
2018-07-06T12:03:42.282Z,22.10
2018-07-06T12:06:10.974Z,22.20
2018-07-06T12:08:39.830Z,22.40
2018-07-06T12:11:08.717Z,22.60
2018-07-06T12:13:37.302Z,22.90
2018-07-06T12:16:05.865Z,23.20
2018-07-06T12:18:34.380Z,23.40
2018-07-06T12:21:03.092Z,23.40
2018-07-06T12:23:31.598Z,23.60
2018-07-06T12:26:00.192Z,23.70
2018-07-06T12:28:28.749Z,23.80
2018-07-06T12:33:25.550Z,23.70
2018-07-06T12:35:54.074Z,23.40
2018-07-06T12:38:22.616Z,23.10
2018-07-06T12:40:51.431Z,22.60
2018-07-06T12:43:19.959Z,22.50
2018-07-06T12:45:48.533Z,22.60
2018-07-06T12:48:17.073Z,22.80
2018-07-06T12:50:45.623Z,22.80
2018-07-06T12:53:14.182Z,22.80
2018-07-06T12:55:42.734Z,22.80
2018-07-06T12:58:11.410Z,22.50
2018-07-06T13:00:39.900Z,22.20
2018-07-06T13:03:08.536Z,22.00
2018-07-06T13:05:37.062Z,21.90
2018-07-06T13:08:05.629Z,21.80
2018-07-06T13:10:34.212Z,21.80
2018-07-06T13:13:02.659Z,21.40
2018-07-06T13:15:31.416Z,21.20
2018-07-06T13:18:00.062Z,21.20
2018-07-06T13:20:28.607Z,21.10
2018-07-06T13:22:57.151Z,21.30
2018-07-06T13:25:25.733Z,21.70
2018-07-06T13:27:54.304Z,22.30
2018-07-06T13:30:22.841Z,22.90
2018-07-06T13:32:52.175Z,23.10
2018-07-06T13:35:20.789Z,22.90
2018-07-06T13:37:49.457Z,23.40
2018-07-06T13:40:18.054Z,24.10
2018-07-06T13:42:46.780Z,24.70
2018-07-06T13:45:15.692Z,25.40
2018-07-06T13:47:44.574Z,25.60
2018-07-06T13:50:13.261Z,25.50
2018-07-06T13:52:41.846Z,25.20
2018-07-06T13:55:10.495Z,24.60
2018-07-06T13:57:39.216Z,23.90
2018-07-06T14:00:08.502Z,23.80
2018-07-06T14:02:37.073Z,23.80
2018-07-06T14:05:05.821Z,23.60
2018-07-06T14:07:34.613Z,23.60
2018-07-06T14:10:03.360Z,23.50
2018-07-06T14:12:31.946Z,23.40
2018-07-06T14:15:00.638Z,23.20
2018-07-06T14:17:29.221Z,23.10
2018-07-06T14:19:57.864Z,22.80
2018-07-06T14:24:54.914Z,21.60
2018-07-06T14:27:23.469Z,21.00
2018-07-06T14:29:52.019Z,20.70
2018-07-06T14:32:20.748Z,20.20
2018-07-06T14:34:50.146Z,20.00
2018-07-06T14:37:18.955Z,19.70
2018-07-06T14:39:47.593Z,19.60
2018-07-06T14:42:16.485Z,19.50
2018-07-06T14:44:45.128Z,19.30
2018-07-06T14:49:42.466Z,19.20
2018-07-06T14:52:11.109Z,19.10
2018-07-06T14:54:39.728Z,19.20
2018-07-06T14:57:08.340Z,19.20
2018-07-06T14:59:37.148Z,19.20
2018-07-06T15:04:34.531Z,18.90
2018-07-06T15:07:03.470Z,19.00
2018-07-06T15:09:32.047Z,19.00
2018-07-06T15:12:00.819Z,18.90
2018-07-06T15:14:29.489Z,18.90
2018-07-06T15:16:58.199Z,18.80
2018-07-06T15:19:27.108Z,18.80
2018-07-06T15:21:56.105Z,18.80
2018-07-06T15:24:24.793Z,18.90
2018-07-06T15:26:53.429Z,18.90
2018-07-06T15:29:22.329Z,18.70
2018-07-06T15:31:51.025Z,18.70
2018-07-06T15:34:19.740Z,18.70
2018-07-06T15:36:49.022Z,18.50
2018-07-06T15:39:18.293Z,18.50
2018-07-06T15:41:47.240Z,18.80
2018-07-06T15:46:44.191Z,19.10
2018-07-06T15:49:13.050Z,19.20
2018-07-06T15:51:42.029Z,19.30
2018-07-06T15:54:11.025Z,19.40
2018-07-06T15:56:40.112Z,19.30
2018-07-06T15:59:11.876Z,19.40
2018-07-06T16:01:40.667Z,19.30
2018-07-06T16:04:09.795Z,19.20
2018-07-06T16:06:38.477Z,19.00
2018-07-06T16:09:07.314Z,18.80
2018-07-06T16:11:36.236Z,18.80
2018-07-06T16:14:05.480Z,18.70
2018-07-06T16:16:34.046Z,18.80
2018-07-06T16:19:02.803Z,18.80
2018-07-06T16:21:31.692Z,19.00
2018-07-06T16:24:01.274Z,19.00
2018-07-06T16:26:30.174Z,19.00
2018-07-06T16:28:59.236Z,19.10
2018-07-06T16:31:28.135Z,19.10
2018-07-06T16:33:57.175Z,19.20
2018-07-06T16:36:26.131Z,19.30
2018-07-06T16:38:55.205Z,19.40
2018-07-06T16:41:24.349Z,19.40
2018-07-06T16:43:53.482Z,19.40
2018-07-06T16:46:22.223Z,19.40
2018-07-06T16:48:51.010Z,19.40
2018-07-06T16:51:20.064Z,19.30
2018-07-06T16:53:49.258Z,19.40
2018-07-06T16:56:18.106Z,19.30
2018-07-06T16:58:46.948Z,19.40
2018-07-06T17:01:15.849Z,19.40
2018-07-06T17:03:44.942Z,19.30
2018-07-06T17:06:13.965Z,19.20
2018-07-06T17:08:42.750Z,19.30
2018-07-06T17:11:11.478Z,19.20
2018-07-06T17:13:40.198Z,19.30
2018-07-06T17:16:09.175Z,19.20
2018-07-06T17:18:38.144Z,19.20
2018-07-06T17:21:07.451Z,19.20
2018-07-06T17:23:36.571Z,19.10
2018-07-06T17:26:05.522Z,19.20
2018-07-06T17:28:34.652Z,19.30
2018-07-06T17:31:03.494Z,19.20
2018-07-06T17:33:32.734Z,19.20
2018-07-06T17:36:03.003Z,19.20
2018-07-06T17:38:32.850Z,19.10
2018-07-06T17:41:02.341Z,19.10
2018-07-06T17:43:31.753Z,18.90
2018-07-06T17:46:00.729Z,18.90
2018-07-06T17:48:30.021Z,18.90
2018-07-06T17:50:59.083Z,18.70
2018-07-06T17:53:27.831Z,18.70
2018-07-06T17:55:58.006Z,18.70
2018-07-06T17:58:27.049Z,18.60
2018-07-06T18:00:56.160Z,18.70
2018-07-06T18:03:25.272Z,18.70
2018-07-06T18:05:54.686Z,18.80
2018-07-06T18:08:23.719Z,18.80
2018-07-06T18:10:52.564Z,18.70
2018-07-06T18:13:21.534Z,18.70
2018-07-06T18:15:50.505Z,18.70
2018-07-06T18:18:19.328Z,18.70
2018-07-06T18:20:48.993Z,18.70
2018-07-06T18:23:18.206Z,18.70
2018-07-06T18:25:47.153Z,18.60
2018-07-06T18:28:15.985Z,18.70
2018-07-06T18:30:44.695Z,18.60
2018-07-06T18:33:13.378Z,18.70
2018-07-06T18:38:11.036Z,18.70
2018-07-06T18:40:39.964Z,18.90
2018-07-06T18:45:37.261Z,19.00
2018-07-06T18:48:06.774Z,19.00
2018-07-06T18:50:36.788Z,19.00
2018-07-06T18:53:06.200Z,18.90
2018-07-06T18:55:35.571Z,18.90
2018-07-06T18:58:04.536Z,18.90
2018-07-06T19:00:33.754Z,18.80
2018-07-06T19:03:03.510Z,18.80
2018-07-06T19:05:33.117Z,18.70
2018-07-06T19:08:02.959Z,18.70
2018-07-06T19:10:32.081Z,18.70
2018-07-06T19:13:01.913Z,18.70
2018-07-06T19:15:31.023Z,18.70
2018-07-06T19:18:00.855Z,18.70
2018-07-06T19:20:31.325Z,18.70
2018-07-06T19:23:00.563Z,18.70
2018-07-06T19:25:30.170Z,18.60
2018-07-06T19:27:59.902Z,18.60
2018-07-06T19:30:29.415Z,18.50
2018-07-06T19:32:58.660Z,18.50
2018-07-06T19:35:27.928Z,18.50
2018-07-06T19:37:57.851Z,18.40
2018-07-06T19:40:27.321Z,18.40
2018-07-06T19:42:56.750Z,18.40
2018-07-06T19:45:26.703Z,18.40
2018-07-06T19:47:55.891Z,18.30
2018-07-06T19:50:24.949Z,18.30
2018-07-06T19:55:22.803Z,18.30
2018-07-06T19:57:52.144Z,18.20
2018-07-06T20:00:21.042Z,18.20
2018-07-06T20:02:49.712Z,18.20
2018-07-06T20:05:18.841Z,18.20
2018-07-06T20:07:48.263Z,18.10
2018-07-06T20:10:17.598Z,18.10
2018-07-06T20:12:46.680Z,18.10
2018-07-06T20:15:16.615Z,18.10
2018-07-06T20:17:46.073Z,18.10
2018-07-06T20:20:15.298Z,18.00
2018-07-06T20:22:44.497Z,18.10
2018-07-06T20:25:13.478Z,18.10
2018-07-06T20:27:42.431Z,18.10
2018-07-06T20:30:11.389Z,18.10
2018-07-06T20:32:40.798Z,18.10
2018-07-06T20:35:09.766Z,18.10
2018-07-06T20:37:38.619Z,18.10
2018-07-06T20:40:07.625Z,18.00
2018-07-06T20:42:36.791Z,18.00
2018-07-06T20:45:05.457Z,18.00
2018-07-06T20:47:34.173Z,18.00
2018-07-06T20:50:03.337Z,18.00
2018-07-06T20:52:32.279Z,18.00
2018-07-06T20:55:00.977Z,18.00
2018-07-06T20:57:29.606Z,18.00
2018-07-06T20:59:58.198Z,17.90
2018-07-06T21:02:27.025Z,17.90
2018-07-06T21:04:56.047Z,17.90
2018-07-06T21:07:24.837Z,17.80
2018-07-06T21:09:53.501Z,17.70
2018-07-06T21:12:22.104Z,17.70
2018-07-06T21:14:50.670Z,17.60
2018-07-06T21:17:19.199Z,17.60
2018-07-06T21:19:48.144Z,17.50
2018-07-06T21:22:17.047Z,17.40
2018-07-06T21:24:45.904Z,17.40
2018-07-06T21:27:14.899Z,17.40
2018-07-06T21:29:43.826Z,17.30
2018-07-06T21:32:12.487Z,17.20
2018-07-06T21:34:41.163Z,17.20
2018-07-06T21:37:10.024Z,17.10
2018-07-06T21:39:38.757Z,17.10
2018-07-06T21:42:07.489Z,17.00
2018-07-06T21:44:36.201Z,17.00
2018-07-06T21:47:04.851Z,16.90
2018-07-06T21:49:33.520Z,16.80
2018-07-06T21:52:02.138Z,16.80
2018-07-06T21:54:30.834Z,16.80
2018-07-06T21:56:59.529Z,16.70
2018-07-06T21:59:28.152Z,16.60
2018-07-06T22:01:56.751Z,16.60
2018-07-06T22:04:25.458Z,16.60
2018-07-06T22:06:54.049Z,16.50
2018-07-06T22:09:23.258Z,16.40
2018-07-06T22:11:51.974Z,16.50
2018-07-06T22:14:20.584Z,16.40
2018-07-06T22:16:49.153Z,16.40
2018-07-06T22:19:17.750Z,16.20
2018-07-06T22:21:46.302Z,16.20
2018-07-06T22:24:14.885Z,16.20
2018-07-06T22:26:43.461Z,16.10
2018-07-06T22:29:12.085Z,16.00
2018-07-06T22:31:40.654Z,15.90
2018-07-06T22:34:09.206Z,15.90
2018-07-06T22:36:37.981Z,15.90
2018-07-06T22:39:07.457Z,15.80
2018-07-06T22:41:36.062Z,15.70
2018-07-06T22:44:04.702Z,15.70
2018-07-06T22:46:33.310Z,15.70
2018-07-06T22:49:01.946Z,15.60
2018-07-06T22:51:30.430Z,15.60
2018-07-06T22:53:59.000Z,15.60
2018-07-06T22:56:27.583Z,15.60
2018-07-06T22:58:56.113Z,15.60
2018-07-06T23:01:24.687Z,15.60
2018-07-06T23:03:53.243Z,15.50
2018-07-06T23:06:21.851Z,15.50
2018-07-06T23:08:50.356Z,15.50
2018-07-06T23:11:18.998Z,15.60
2018-07-06T23:13:47.604Z,15.50
2018-07-06T23:16:16.232Z,15.50
2018-07-06T23:18:44.807Z,15.40
2018-07-06T23:21:13.444Z,15.40
2018-07-06T23:23:42.008Z,15.50
2018-07-06T23:26:10.568Z,15.40
2018-07-06T23:28:39.033Z,15.40
2018-07-06T23:31:07.663Z,15.40
2018-07-06T23:33:36.187Z,15.40
2018-07-06T23:36:04.995Z,15.50
2018-07-06T23:38:33.440Z,15.40
2018-07-06T23:41:02.114Z,15.50
2018-07-06T23:43:30.657Z,15.50
2018-07-06T23:45:59.337Z,15.50
2018-07-06T23:48:27.799Z,15.50
2018-07-06T23:50:56.303Z,15.50
2018-07-06T23:53:24.825Z,15.50
2018-07-06T23:55:53.342Z,15.40
2018-07-06T23:58:21.879Z,15.40
